Time;durP1;ratioP1;P1;durP2;ratioP2;P2;SDS_P1;SDS_P2;PMS_P1;PMS_P2;Temp;Humidity;BMP_temperature;BMP_pressure;BME280_temperature;BME280_humidity;BME280_pressure;Samples;Min_cycle;Max_cycle;Signal;HPM_P1;HPM_P2
2023/08/27 00:01:30;;;;;;;2.80;1.98;;;;;;;14.11;100.00;101019.31;5034799;28;20032;-80
2023/08/27 00:03:56;;;;;;;3.47;2.22;;;;;;;14.14;100.00;101011.28;5051982;28;20032;-78
2023/08/27 00:06:21;;;;;;;3.35;1.98;;;;;;;14.11;100.00;100996.75;5034459;28;20044;-77
2023/08/27 00:08:46;;;;;;;4.07;2.28;;;;;;;14.17;100.00;100995.50;5052463;28;20036;-77
2023/08/27 00:11:11;;;;;;;4.68;2.30;;;;;;;14.05;100.00;100979.88;5052451;28;20032;-77
2023/08/27 00:13:37;;;;;;;4.32;2.28;;;;;;;13.95;100.00;100950.34;5052580;28;20025;-77
2023/08/27 00:16:05;;;;;;;4.70;2.58;;;;;;;14.09;100.00;100961.47;5052681;28;20049;-77
2023/08/27 00:18:30;;;;;;;8.55;2.78;;;;;;;14.15;100.00;100959.22;5052322;28;20087;-78
2023/08/27 00:20:56;;;;;;;6.35;2.58;;;;;;;14.23;100.00;100974.22;5034253;28;20036;-79
2023/08/27 00:23:21;;;;;;;4.18;2.22;;;;;;;14.22;100.00;100968.22;5034145;28;20036;-79
2023/08/27 00:25:47;;;;;;;4.82;2.25;;;;;;;13.97;100.00;100935.50;5034431;28;20017;-78
2023/08/27 00:28:13;;;;;;;2.85;2.30;;;;;;;14.16;100.00;100958.31;5052522;28;20025;-78
2023/08/27 00:30:39;;;;;;;3.85;2.13;;;;;;;14.13;100.00;100950.72;5033992;28;20400;-78
2023/08/27 00:33:04;;;;;;;3.85;2.10;;;;;;;14.11;100.00;100938.81;5052357;28;20025;-78
2023/08/27 00:35:29;;;;;;;3.85;2.40;;;;;;;14.12;100.00;100937.88;5052438;28;20028;-78
2023/08/27 00:37:55;;;;;;;4.20;2.28;;;;;;;14.07;100.00;100926.06;5052356;28;20071;-78
2023/08/27 00:40:20;;;;;;;6.85;2.40;;;;;;;14.13;100.00;100929.13;5052192;28;20072;-78
2023/08/27 00:42:45;;;;;;;3.95;2.22;;;;;;;14.05;100.00;100921.91;5052539;28;20025;-78
2023/08/27 00:45:11;;;;;;;2.55;2.03;;;;;;;14.00;100.00;100911.88;5052425;28;20033;-78
2023/08/27 00:47:37;;;;;;;3.30;2.13;;;;;;;13.89;100.00;100905.88;5034391;28;20369;-78
2023/08/27 00:50:07;;;;;;;5.63;2.20;;;;;;;13.87;100.00;100902.56;5052034;28;20036;-78
2023/08/27 00:52:32;;;;;;;4.00;2.15;;;;;;;14.01;100.00;100923.09;5034181;28;20094;-78
2023/08/27 00:54:59;;;;;;;3.63;1.88;;;;;;;13.97;100.00;100925.13;5034386;28;20392;-78
2023/08/27 00:57:25;;;;;;;3.95;2.42;;;;;;;13.92;100.00;100910.81;5052304;28;20052;-78
2023/08/27 00:59:53;;;;;;;3.42;2.10;;;;;;;13.89;100.00;100916.25;5052377;28;20091;-78
2023/08/27 01:02:18;;;;;;;3.00;1.77;;;;;;;13.80;100.00;100907.38;5034194;28;20040;-78
2023/08/27 01:04:44;;;;;;;2.80;1.80;;;;;;;13.71;100.00;100898.50;5052248;28;20029;-78
2023/08/27 01:07:19;;;;;;;4.18;1.77;;;;;;;13.64;100.00;100907.69;5052022;28;20490;-78
2023/08/27 01:09:51;;;;;;;4.35;1.90;;;;;;;13.67;100.00;100911.84;5052028;28;20040;-79
2023/08/27 01:12:23;;;;;;;3.38;2.03;;;;;;;13.57;100.00;100916.88;5052105;28;20075;-79
2023/08/27 01:14:51;;;;;;;4.32;2.30;;;;;;;13.52;100.00;100908.59;5053066;28;20025;-78
2023/08/27 01:17:20;;;;;;;3.72;1.83;;;;;;;13.44;100.00;100898.78;5055697;28;20033;-78
2023/08/27 01:19:48;;;;;;;4.30;1.77;;;;;;;13.33;100.00;100890.97;5055685;28;20063;-78
2023/08/27 01:22:13;;;;;;;3.65;2.10;;;;;;;13.18;100.00;100887.72;5037676;28;20013;-78
2023/08/27 01:24:39;;;;;;;2.63;1.80;;;;;;;13.25;100.00;100893.28;5055646;28;20480;-78
2023/08/27 01:27:11;;;;;;;3.08;1.95;;;;;;;13.12;100.00;100895.94;5055489;28;20421;-78
2023/08/27 01:29:56;;;;;;;4.40;1.98;;;;;;;12.94;100.00;100879.09;5055382;28;20032;-78
2023/08/27 01:32:28;;;;;;;4.97;2.33;;;;;;;12.92;100.00;100888.75;5055607;28;20108;-78
2023/08/27 01:34:55;;;;;;;4.40;2.30;;;;;;;12.78;100.00;100888.91;5055371;28;20456;-78
2023/08/27 01:37:21;;;;;;;4.25;2.42;;;;;;;12.46;100.00;100837.63;5055416;28;20372;-78
2023/08/27 01:39:57;;;;;;;3.60;2.35;;;;;;;12.64;100.00;100879.53;5055354;28;20040;-78
2023/08/27 01:42:22;;;;;;;2.78;1.98;;;;;;;12.62;100.00;100890.00;5055196;28;20028;-78
2023/08/27 01:44:48;;;;;;;3.53;2.42;;;;;;;12.59;100.00;100892.00;5055190;28;20078;-78
2023/08/27 01:47:13;;;;;;;5.15;2.97;;;;;;;12.53;100.00;100888.06;5055058;28;20021;-78
2023/08/27 01:49:38;;;;;;;3.50;2.55;;;;;;;12.32;100.00;100867.06;5055081;28;20108;-78
2023/08/27 01:52:04;;;;;;;4.18;2.72;;;;;;;12.35;100.00;100876.38;5055079;28;20483;-78
2023/08/27 01:54:33;;;;;;;3.85;2.45;;;;;;;12.46;100.00;100886.81;5055284;28;20045;-78
2023/08/27 01:56:58;;;;;;;7.03;2.80;;;;;;;12.50;100.00;100884.88;5036711;28;20045;-78
2023/08/27 01:59:23;;;;;;;4.15;2.58;;;;;;;12.53;100.00;100876.88;5055091;28;20033;-78
2023/08/27 02:01:49;;;;;;;4.38;2.75;;;;;;;12.38;100.00;100845.09;5054520;28;20029;-78
2023/08/27 02:04:14;;;;;;;3.67;2.40;;;;;;;12.56;100.00;100869.69;5055163;28;20029;-78
2023/08/27 02:06:40;;;;;;;5.15;2.80;;;;;;;12.63;100.00;100872.69;5054905;28;20024;-78
2023/08/27 02:09:06;;;;;;;5.65;2.78;;;;;;;12.66;100.00;100863.88;5054940;28;20499;-78
2023/08/27 02:11:31;;;;;;;7.00;2.97;;;;;;;12.71;100.00;100875.56;5054376;28;20024;-78
2023/08/27 02:13:56;;;;;;;4.78;2.92;;;;;;;12.64;100.00;100848.44;5054681;28;20112;-78
2023/08/27 02:19:03;;;;;;;5.00;2.95;;;;;;;12.93;100.00;100870.50;6232725;22;20258;-78
2023/08/27 02:21:29;;;;;;;5.70;2.55;;;;;;;13.00;100.00;100875.25;5050822;28;20459;-78
2023/08/27 02:23:55;;;;;;;4.97;3.03;;;;;;;13.04;100.00;100874.09;5054473;28;20025;-78
2023/08/27 02:26:20;;;;;;;5.30;2.78;;;;;;;13.10;100.00;100871.06;5053489;28;20029;-78
2023/08/27 02:36:31;;;;;;;5.13;2.65;;;;;;;13.25;100.00;100880.31;5679040;22;20102;-78
2023/08/27 02:38:56;;;;;;;5.60;2.88;;;;;;;13.17;100.00;100869.66;5054257;28;20050;-78
2023/08/27 02:41:21;;;;;;;4.55;2.95;;;;;;;13.32;100.00;100891.91;5054295;28;20043;-78
2023/08/27 02:43:47;;;;;;;4.88;2.90;;;;;;;13.23;100.00;100871.00;5053981;28;20025;-78
2023/08/27 02:46:12;;;;;;;3.63;2.65;;;;;;;13.38;100.00;100888.06;5054177;28;20036;-80
2023/08/27 02:48:37;;;;;;;5.68;3.00;;;;;;;13.38;100.00;100888.88;5054179;28;20032;-79
2023/08/27 02:51:03;;;;;;;5.63;3.08;;;;;;;13.32;100.00;100867.75;5054161;28;20056;-79
2023/08/27 02:53:28;;;;;;;6.18;3.45;;;;;;;13.40;100.00;100876.63;5054242;28;20029;-80
2023/08/27 02:55:53;;;;;;;7.15;3.60;;;;;;;13.40;100.00;100880.97;5054047;28;20029;-80
2023/08/27 02:58:19;;;;;;;4.95;3.10;;;;;;;13.35;100.00;100891.69;5053968;28;20032;-80
2023/08/27 03:00:44;;;;;;;5.88;3.67;;;;;;;13.37;100.00;100891.56;5053675;28;20029;-79
2023/08/27 03:03:09;;;;;;;4.85;3.13;;;;;;;13.21;100.00;100868.53;5053918;28;20528;-79
2023/08/27 03:05:35;;;;;;;5.60;3.50;;;;;;;13.27;100.00;100877.63;5035813;28;20033;-79
2023/08/27 03:08:00;;;;;;;5.05;3.42;;;;;;;13.38;100.00;100896.66;5053680;28;20032;-79
2023/08/27 03:10:25;;;;;;;6.85;3.58;;;;;;;13.31;100.00;100889.44;5053631;28;20530;-79
2023/08/27 03:12:51;;;;;;;6.40;3.78;;;;;;;13.36;100.00;100895.91;5053472;28;20495;-79
2023/08/27 03:15:16;;;;;;;5.53;3.67;;;;;;;13.37;100.00;100897.59;5053412;28;20452;-79
2023/08/27 03:17:41;;;;;;;5.78;3.70;;;;;;;13.34;100.00;100895.22;5053282;28;20061;-78
2023/08/27 03:20:07;;;;;;;7.55;3.67;;;;;;;13.26;100.00;100883.75;5053601;28;20029;-79
2023/08/27 03:22:33;;;;;;;6.25;3.65;;;;;;;13.31;100.00;100884.25;5053252;28;20015;-79
2023/08/27 03:25:00;;;;;;;6.22;3.45;;;;;;;13.28;100.00;100892.25;5053359;28;20029;-79
2023/08/27 03:27:26;;;;;;;5.95;3.70;;;;;;;13.07;100.00;100858.28;5053424;28;20024;-79
2023/08/27 03:29:52;;;;;;;8.30;3.75;;;;;;;13.35;100.00;100898.63;5034578;28;20033;-79
2023/08/27 03:32:17;;;;;;;5.47;3.60;;;;;;;13.32;100.00;100904.06;5053009;28;20028;-80
2023/08/27 03:34:42;;;;;;;6.43;4.03;;;;;;;13.29;100.00;100899.94;5053097;28;20531;-80
2023/08/27 03:37:08;;;;;;;6.53;3.85;;;;;;;13.31;100.00;100900.63;5052813;28;20140;-80
2023/08/27 03:39:33;;;;;;;5.95;3.63;;;;;;;13.33;100.00;100898.75;5053110;28;20037;-78
2023/08/27 03:41:58;;;;;;;6.78;3.42;;;;;;;13.23;100.00;100896.94;5053091;28;20033;-79
2023/08/27 03:44:24;;;;;;;5.60;3.25;;;;;;;13.24;100.00;100896.00;5052966;28;20075;-79
2023/08/27 03:46:49;;;;;;;4.95;3.10;;;;;;;13.21;100.00;100889.28;5052857;28;20060;-79
2023/08/27 03:49:15;;;;;;;5.50;3.33;;;;;;;13.18;100.00;100892.91;5052829;28;20429;-80
2023/08/27 03:51:40;;;;;;;6.60;3.70;;;;;;;13.06;100.00;100873.03;5053069;28;20105;-79
2023/08/27 03:54:06;;;;;;;6.80;3.85;;;;;;;13.16;100.00;100876.59;5053048;28;20024;-81
2023/08/27 03:56:32;;;;;;;6.13;2.97;;;;;;;13.15;100.00;100885.31;5053012;28;20024;-79
2023/08/27 03:58:57;;;;;;;6.32;3.13;;;;;;;13.16;100.00;100880.97;5052843;28;20029;-81
2023/08/27 04:01:23;;;;;;;5.13;3.30;;;;;;;13.14;100.00;100868.13;5052742;28;20040;-80
2023/08/27 04:03:48;;;;;;;5.65;3.42;;;;;;;13.14;100.00;100864.69;5052404;28;20021;-81
2023/08/27 04:06:13;;;;;;;5.80;3.50;;;;;;;13.11;100.00;100855.38;5034424;28;20457;-79
2023/08/27 04:08:39;;;;;;;5.38;3.60;;;;;;;13.20;100.00;100866.88;5052818;28;20031;-81
2023/08/27 04:11:04;;;;;;;6.05;3.78;;;;;;;13.16;100.00;100868.00;5052687;28;20456;-81
2023/08/27 04:13:30;;;;;;;5.95;3.55;;;;;;;13.15;100.00;100862.00;5052481;28;20060;-80
2023/08/27 04:15:59;;;;;;;7.35;3.80;;;;;;;13.18;100.00;100861.78;5052443;28;20020;-80
2023/08/27 04:18:26;;;;;;;5.95;3.50;;;;;;;13.13;100.00;100858.69;5052362;28;20087;-80
2023/08/27 04:20:51;;;;;;;6.50;3.63;;;;;;;13.02;100.00;100835.31;5052726;28;20029;-81
2023/08/27 04:23:17;;;;;;;6.60;3.70;;;;;;;13.11;100.00;100855.38;5052300;28;20033;-81
2023/08/27 04:25:45;;;;;;;5.63;3.42;;;;;;;13.17;100.00;100856.69;5052617;28;20053;-81
2023/08/27 04:28:10;;;;;;;7.95;3.80;;;;;;;13.19;100.00;100853.09;5052622;28;20394;-80
2023/08/27 04:30:36;;;;;;;6.43;3.42;;;;;;;13.18;100.00;100871.34;5051999;28;20040;-81
2023/08/27 04:33:04;;;;;;;6.13;3.67;;;;;;;13.19;100.00;100873.00;5052315;28;20040;-81
2023/08/27 04:35:29;;;;;;;5.03;3.28;;;;;;;13.20;100.00;100885.03;5052673;28;20029;-80
2023/08/27 04:37:54;;;;;;;5.88;3.65;;;;;;;13.05;100.00;100853.22;5051972;28;20107;-79
2023/08/27 04:40:20;;;;;;;5.75;3.25;;;;;;;13.17;100.00;100869.66;5052286;28;20474;-79
2023/08/27 04:42:45;;;;;;;5.40;3.25;;;;;;;13.12;100.00;100853.63;5052183;28;20047;-79
2023/08/27 04:45:10;;;;;;;6.60;3.70;;;;;;;12.99;100.00;100842.50;5052238;28;20028;-79
2023/08/27 04:47:36;;;;;;;5.95;3.60;;;;;;;13.01;100.00;100844.03;5052189;28;20032;-79
2023/08/27 04:50:01;;;;;;;6.38;3.80;;;;;;;13.10;100.00;100864.09;5053745;28;20353;-80
2023/08/27 04:52:26;;;;;;;7.00;3.40;;;;;;;13.11;100.00;100863.16;5056448;28;20029;-80
2023/08/27 04:54:52;;;;;;;7.05;3.80;;;;;;;13.11;100.00;100870.94;5056351;28;20104;-80
2023/08/27 04:57:17;;;;;;;5.95;3.55;;;;;;;13.12;100.00;100871.75;5056227;28;20056;-80
2023/08/27 04:59:42;;;;;;;5.47;3.22;;;;;;;12.83;100.00;100830.63;5055884;28;20127;-80
2023/08/27 05:02:08;;;;;;;5.78;3.53;;;;;;;13.12;100.00;100876.94;5056044;28;20029;-80
2023/08/27 05:04:33;;;;;;;6.28;3.80;;;;;;;12.89;100.00;100848.34;5055839;28;20032;-79
2023/08/27 05:06:58;;;;;;;5.68;3.60;;;;;;;13.18;100.00;100890.31;5056083;28;20033;-80
2023/08/27 05:09:26;;;;;;;6.90;3.67;;;;;;;13.23;100.00;100894.34;5056103;28;20025;-80
2023/08/27 05:11:51;;;;;;;7.22;3.60;;;;;;;13.25;100.00;100892.47;5055950;28;20044;-80
2023/08/27 05:14:16;;;;;;;5.75;3.80;;;;;;;13.26;100.00;100889.75;5055539;28;20494;-80
2023/08/27 05:16:42;;;;;;;6.22;3.78;;;;;;;13.02;100.00;100860.41;5055696;28;20032;-80
2023/08/27 05:19:07;;;;;;;6.53;4.15;;;;;;;13.26;100.00;100899.31;5055790;28;20028;-80
2023/08/27 05:21:36;;;;;;;6.00;3.80;;;;;;;13.26;100.00;100894.94;5055718;28;20112;-80
2023/08/27 05:24:02;;;;;;;5.68;3.70;;;;;;;13.29;100.00;100894.75;5055556;28;20043;-80
2023/08/27 05:26:27;;;;;;;7.13;3.80;;;;;;;12.73;100.00;100798.56;5036806;28;20037;-80
2023/08/27 05:28:53;;;;;;;7.28;4.05;;;;;;;13.23;100.00;100877.03;5055612;28;20053;-80
2023/08/27 05:31:18;;;;;;;6.80;3.67;;;;;;;13.36;100.00;100889.91;5057801;28;20071;-79
2023/08/27 05:33:44;;;;;;;4.63;3.17;;;;;;;13.33;100.00;100884.97;5057452;28;20040;-80
2023/08/27 05:36:09;;;;;;;6.07;3.88;;;;;;;13.03;100.00;100842.16;5075314;28;20029;-80
2023/08/27 05:38:34;;;;;;;6.30;3.60;;;;;;;13.33;100.00;100888.38;5075499;28;20046;-80
2023/08/27 05:41:00;;;;;;;7.20;3.15;;;;;;;13.35;100.00;100883.91;5075611;28;20028;-80
2023/08/27 05:43:26;;;;;;;5.80;3.55;;;;;;;13.17;100.00;100852.34;5075305;28;20031;-80
2023/08/27 05:45:51;;;;;;;5.43;3.22;;;;;;;13.38;100.00;100883.69;5075202;28;20178;-80
2023/08/27 05:48:16;;;;;;;7.38;3.53;;;;;;;13.45;100.00;100887.47;5075207;28;20035;-80
2023/08/27 05:50:42;;;;;;;5.55;3.28;;;;;;;13.54;100.00;100879.94;5074996;28;20035;-79
2023/08/27 05:53:07;;;;;;;7.50;3.60;;;;;;;13.63;100.00;100881.84;5075385;28;20036;-80
2023/08/27 05:55:33;;;;;;;4.53;3.35;;;;;;;13.69;100.00;100886.59;5075297;28;20081;-80
2023/08/27 05:57:59;;;;;;;5.03;3.40;;;;;;;13.65;100.00;100874.78;5075116;28;20021;-80
2023/08/27 06:00:25;;;;;;;7.72;3.38;;;;;;;13.69;100.00;100881.41;5074557;28;20035;-80
2023/08/27 06:02:50;;;;;;;4.50;3.33;;;;;;;13.77;100.00;100881.66;5055705;28;20099;-80
2023/08/27 06:05:15;;;;;;;5.43;3.15;;;;;;;13.91;100.00;100878.00;5074971;28;20028;-80
2023/08/27 06:07:41;;;;;;;6.35;3.40;;;;;;;13.92;100.00;100857.13;5074827;28;20021;-80
2023/08/27 06:10:06;;;;;;;7.65;3.33;;;;;;;14.26;100.00;100891.72;5074919;28;20025;-80
2023/08/27 06:12:31;;;;;;;6.43;3.30;;;;;;;14.40;100.00;100882.84;5075077;28;20464;-80
2023/08/27 06:14:57;;;;;;;6.88;3.30;;;;;;;14.80;100.00;100872.75;5062882;28;20036;-80
2023/08/27 06:17:22;;;;;;;7.68;3.38;;;;;;;15.20;100.00;100872.97;5037615;28;20025;-81
2023/08/27 06:19:48;;;;;;;5.00;3.15;;;;;;;15.22;100.00;100865.03;5054849;28;20377;-79
2023/08/27 06:22:16;;;;;;;7.57;3.03;;;;;;;15.10;100.00;100866.03;5054421;28;20036;-79
2023/08/27 06:24:42;;;;;;;5.22;3.13;;;;;;;14.84;100.00;100862.94;5036779;28;20021;-79
2023/08/27 06:27:07;;;;;;;7.82;3.67;;;;;;;14.73;100.00;100858.59;5054489;28;20479;-81
2023/08/27 06:29:33;;;;;;;4.00;2.90;;;;;;;15.26;100.00;100853.44;5056662;22;20108;-81
2023/08/27 06:31:59;;;;;;;4.97;3.25;;;;;;;15.99;100.00;100852.50;5034382;28;20029;-81
2023/08/27 06:34:33;;;;;;;4.38;2.80;;;;;;;17.26;100.00;100817.03;5034455;28;20041;-78
2023/08/27 06:36:58;;;;;;;5.53;3.03;;;;;;;18.16;100.00;100751.94;5034548;28;20026;-81
2023/08/27 06:39:30;;;;;;;3.83;2.17;;;;;;;20.01;96.75;100861.88;5034287;28;20040;-81
2023/08/27 06:47:05;;;;;;;5.50;1.90;;;;;;;21.86;82.46;100857.97;5094011;22;20052;-82
2023/08/27 06:52:01;;;;;;;5.60;2.40;;;;;;;22.25;75.36;100847.50;5069545;28;20044;-81
2023/08/27 06:54:26;;;;;;;4.53;2.08;;;;;;;22.63;73.44;100830.00;5074031;28;20506;-80
2023/08/27 06:56:51;;;;;;;3.50;1.88;;;;;;;23.14;71.50;100857.44;5073975;28;20055;-82
2023/08/27 06:59:17;;;;;;;4.80;1.60;;;;;;;23.06;69.14;100815.38;5073934;28;20119;-82
2023/08/27 07:01:42;;;;;;;4.35;2.13;;;;;;;22.90;66.64;100808.41;5073699;28;20612;-78
2023/08/27 07:04:08;;;;;;;4.25;2.20;;;;;;;23.57;68.57;100855.06;5073643;28;20375;-81
2023/08/27 07:06:34;;;;;;;3.45;2.10;;;;;;;23.59;64.64;100839.91;5073702;28;20032;-82
2023/08/27 07:09:00;;;;;;;5.20;2.20;;;;;;;23.59;65.59;100861.00;5073825;28;20029;-83
2023/08/27 07:11:25;;;;;;;5.70;2.30;;;;;;;23.06;66.66;100856.69;5073546;28;20040;-85
2023/08/27 07:13:50;;;;;;;5.28;2.47;;;;;;;22.19;71.11;100864.78;5073198;28;20023;-84
2023/08/27 07:16:16;;;;;;;3.42;1.90;;;;;;;21.16;75.75;100876.94;5072709;28;20040;-81
2023/08/27 07:18:41;;;;;;;5.38;2.55;;;;;;;20.13;79.06;100870.28;5073516;28;20127;-80
2023/08/27 07:21:07;;;;;;;5.63;2.55;;;;;;;19.54;83.93;100867.47;5073140;28;20111;-82
2023/08/27 07:23:32;;;;;;;4.50;2.40;;;;;;;19.03;87.80;100871.66;5073390;28;20032;-81
2023/08/27 07:25:58;;;;;;;6.00;2.67;;;;;;;18.62;90.69;100871.22;5073423;28;20021;-82
2023/08/27 07:28:23;;;;;;;5.47;2.80;;;;;;;18.39;92.46;100853.50;5073322;28;20035;-82
2023/08/27 07:30:51;;;;;;;5.13;2.83;;;;;;;18.14;94.70;100853.19;5073254;28;20028;-82
2023/08/27 07:33:17;;;;;;;6.95;3.45;;;;;;;17.93;95.33;100840.38;5072984;28;20028;-80
2023/08/27 07:35:43;;;;;;;5.80;2.80;;;;;;;18.11;96.51;100850.06;5072988;28;20086;-82
2023/08/27 07:38:08;;;;;;;6.45;2.80;;;;;;;18.22;96.65;100868.16;5055351;28;20063;-82
2023/08/27 07:40:36;;;;;;;5.78;2.88;;;;;;;18.16;97.48;100866.13;5073486;28;20020;-79
2023/08/27 07:43:02;;;;;;;7.60;3.28;;;;;;;18.08;97.27;100876.47;5073302;28;20079;-78
2023/08/27 07:45:28;;;;;;;7.28;3.90;;;;;;;17.88;98.38;100863.47;5073166;28;20444;-81
2023/08/27 07:47:53;;;;;;;6.30;3.38;;;;;;;17.85;98.47;100857.72;5072844;28;20024;-80
2023/08/27 07:50:21;;;;;;;6.68;3.70;;;;;;;17.87;99.25;100861.00;5072773;28;20399;-82
2023/08/27 07:52:46;;;;;;;8.15;4.18;;;;;;;17.80;98.62;100860.78;5072678;28;20028;-84
2023/08/27 07:55:13;;;;;;;8.32;4.00;;;;;;;17.92;97.68;100869.25;5072862;28;20442;-81
2023/08/27 07:57:38;;;;;;;6.70;3.67;;;;;;;18.42;98.43;100871.50;5072824;28;20021;-83
2023/08/27 08:00:04;;;;;;;7.43;3.15;;;;;;;18.72;96.46;100873.81;5072989;28;20024;-81
2023/08/27 08:02:29;;;;;;;7.38;3.45;;;;;;;18.65;95.92;100871.94;5072582;28;20025;-84
2023/08/27 08:04:55;;;;;;;6.13;3.40;;;;;;;18.50;95.57;100863.75;5072709;28;20024;-83
2023/08/27 08:07:20;;;;;;;9.25;3.53;;;;;;;18.32;97.69;100850.63;5072568;28;20063;-82
2023/08/27 08:09:45;;;;;;;7.20;3.95;;;;;;;18.21;97.76;100838.59;5072776;28;20375;-82
2023/08/27 08:12:11;;;;;;;7.40;3.65;;;;;;;18.37;97.68;100852.81;5072686;28;20025;-80
2023/08/27 08:14:36;;;;;;;5.78;3.70;;;;;;;18.34;96.96;100856.53;5072685;28;20021;-81
2023/08/27 08:17:02;;;;;;;7.25;3.95;;;;;;;18.53;98.01;100853.81;5072791;28;20052;-82
2023/08/27 08:19:27;;;;;;;7.65;3.60;;;;;;;18.84;95.31;100836.00;5072457;28;20046;-83
2023/08/27 08:21:52;;;;;;;6.57;4.07;;;;;;;19.12;93.15;100849.00;5073449;28;20075;-84
2023/08/27 08:24:18;;;;;;;6.45;3.28;;;;;;;19.31;93.55;100850.63;5072857;28;20033;-82
2023/08/27 08:26:43;;;;;;;5.65;3.10;;;;;;;19.56;93.48;100855.06;5072906;28;20082;-85
2023/08/27 08:29:08;;;;;;;7.50;3.42;;;;;;;19.70;91.59;100859.75;5072522;28;20031;-86
2023/08/27 08:31:39;;;;;;;10.05;3.85;;;;;;;19.26;87.98;100822.25;5072824;28;20468;-80
2023/08/27 08:34:09;;;;;;;8.35;3.67;;;;;;;18.74;88.52;100772.47;5073580;28;20091;-76
2023/08/27 08:36:34;;;;;;;6.72;3.10;;;;;;;19.37;93.82;100866.56;5054652;28;20055;-82
2023/08/27 08:39:00;;;;;;;5.65;3.35;;;;;;;19.36;88.93;100849.16;5072480;28;20444;-84
2023/08/27 08:41:28;;;;;;;8.00;3.50;;;;;;;19.48;91.59;100818.34;5072592;28;20055;-85
2023/08/27 08:44:30;;;;;;;6.82;3.10;;;;;;;19.69;87.47;100867.78;5072496;28;20029;-82
2023/08/27 08:46:55;;;;;;;;;;;;;;;19.54;87.99;100870.09;5069104;28;20079;-82
2023/08/27 08:49:22;;;;;;;5.32;2.67;;;;;;;19.19;90.56;100869.19;5072117;28;19959;-81
2023/08/27 08:51:54;;;;;;;5.32;2.63;;;;;;;19.14;91.99;100875.84;5072081;28;20570;-82
2023/08/27 08:54:23;;;;;;;6.05;2.67;;;;;;;19.24;90.56;100857.44;5072396;28;20068;-83
2023/08/27 08:56:53;;;;;;;5.68;2.75;;;;;;;19.34;88.67;100848.50;5072314;28;20021;-83
2023/08/27 08:59:21;;;;;;;4.30;2.55;;;;;;;19.45;84.52;100860.53;5072026;28;20025;-87
2023/08/27 09:01:46;;;;;;;6.95;2.20;;;;;;;19.41;84.14;100857.41;5072142;28;20112;-83
2023/08/27 09:04:15;;;;;;;4.25;1.90;;;;;;;19.40;85.65;100866.22;5071855;28;20035;-83
2023/08/27 09:06:42;;;;;;;5.85;2.35;;;;;;;19.30;85.68;100852.41;5072046;28;20017;-84
2023/08/27 09:09:08;;;;;;;8.70;2.50;;;;;;;19.24;84.59;100852.19;5072231;28;20056;-80
2023/08/27 09:11:35;;;;;;;5.43;2.10;;;;;;;19.16;84.21;100859.00;5072243;28;20067;-82
2023/08/27 09:14:03;;;;;;;5.57;2.20;;;;;;;19.06;86.04;100821.63;5071837;28;20050;-83
2023/08/27 09:16:29;;;;;;;4.18;1.92;;;;;;;19.32;84.33;100845.22;5072139;28;20037;-81
2023/08/27 09:18:55;;;;;;;4.45;2.10;;;;;;;19.25;87.01;100820.63;5071748;28;20031;-83
2023/08/27 09:21:21;;;;;;;4.25;2.20;;;;;;;19.34;84.15;100842.44;5072233;28;20032;-82
2023/08/27 09:23:46;;;;;;;7.03;2.30;;;;;;;19.33;82.96;100840.81;5071990;28;20082;-83
2023/08/27 09:26:14;;;;;;;8.90;2.20;;;;;;;19.32;82.09;100839.97;5071860;28;20021;-83
2023/08/27 09:28:40;;;;;;;6.22;2.22;;;;;;;19.22;81.95;100833.19;5071917;28;20028;-82
2023/08/27 09:31:09;;;;;;;5.40;2.30;;;;;;;19.25;81.70;100825.84;5070198;28;20024;-81
2023/08/27 09:33:35;;;;;;;6.10;1.95;;;;;;;19.29;79.43;100813.28;5072418;28;20029;-81
2023/08/27 09:36:01;;;;;;;4.15;1.70;;;;;;;19.58;83.08;100821.69;5073611;28;20515;-81
2023/08/27 09:38:27;;;;;;;4.78;1.90;;;;;;;19.79;80.33;100802.16;5075461;28;20118;-82
2023/08/27 09:40:53;;;;;;;4.07;1.90;;;;;;;19.85;79.70;100807.56;5075221;28;20033;-80
2023/08/27 09:43:18;;;;;;;3.88;1.92;;;;;;;19.53;76.04;100817.84;5075482;28;20052;-81
2023/08/27 09:45:43;;;;;;;5.72;1.70;;;;;;;19.11;76.97;100800.22;5075342;28;20104;-79
2023/08/27 09:48:09;;;;;;;4.35;1.60;;;;;;;18.99;78.78;100810.13;5075054;28;20052;-81
2023/08/27 09:50:34;;;;;;;6.65;1.92;;;;;;;19.05;80.45;100806.06;5075101;28;20484;-81
2023/08/27 09:53:12;;;;;;;6.00;1.60;;;;;;;19.15;82.14;100806.81;5075380;28;20098;-83
2023/08/27 09:55:40;;;;;;;4.75;1.73;;;;;;;19.24;80.73;100815.53;5075048;28;20037;-81
2023/08/27 09:58:06;;;;;;;5.18;1.70;;;;;;;19.23;78.89;100816.50;5075158;28;20029;-82
2023/08/27 10:00:32;;;;;;;5.65;1.60;;;;;;;19.15;80.56;100801.56;5074805;28;20050;-80
2023/08/27 10:02:58;;;;;;;3.85;1.33;;;;;;;19.23;79.25;100809.47;5074816;28;20028;-82
2023/08/27 10:05:28;;;;;;;5.28;1.40;;;;;;;19.41;81.47;100818.13;5074733;28;20563;-80
2023/08/27 10:08:05;;;;;;;4.05;1.08;;;;;;;19.48;77.04;100807.84;5074877;28;20107;-79
2023/08/27 10:10:32;;;;;;;4.15;1.27;;;;;;;19.67;77.66;100802.44;5074519;28;20157;-80
2023/08/27 10:12:58;;;;;;;4.55;1.23;;;;;;;19.66;73.90;100807.81;5074676;28;20032;-81
2023/08/27 10:15:25;;;;;;;7.43;1.40;;;;;;;19.75;72.46;100815.53;5074687;28;20094;-81
2023/08/27 10:17:54;;;;;;;3.75;1.30;;;;;;;19.64;71.69;100818.44;5074818;28;20101;-82
2023/08/27 10:20:20;;;;;;;4.53;1.80;;;;;;;19.44;73.33;100820.41;5074599;28;20029;-81
2023/08/27 10:22:47;;;;;;;5.88;1.40;;;;;;;19.09;74.59;100797.78;5074660;28;20021;-81
2023/08/27 10:25:17;;;;;;;6.63;1.55;;;;;;;19.17;77.09;100802.22;5074588;28;20100;-81
2023/08/27 10:27:48;;;;;;;5.28;1.55;;;;;;;19.42;79.60;100811.09;5074690;28;20114;-81
2023/08/27 10:30:15;;;;;;;4.75;1.55;;;;;;;19.43;78.88;100802.25;5074291;28;20060;-81
2023/08/27 10:32:41;;;;;;;4.22;1.50;;;;;;;19.45;78.83;100798.50;5074643;28;20025;-81
2023/08/27 10:35:06;;;;;;;4.95;1.40;;;;;;;19.61;77.38;100796.97;5074450;28;20035;-80
2023/08/27 10:37:34;;;;;;;3.08;1.35;;;;;;;20.07;76.68;100800.97;5057155;28;20025;-82
2023/08/27 10:40:04;;;;;;;3.60;0.95;;;;;;;20.28;73.12;100797.91;5056511;28;20021;-82
2023/08/27 10:42:33;;;;;;;5.43;1.40;;;;;;;20.03;68.13;100791.75;5074242;28;20024;-81
2023/08/27 10:45:15;;;;;;;5.78;1.55;;;;;;;19.95;71.00;100815.31;5074127;28;20495;-81
2023/08/27 10:47:41;;;;;;;6.18;1.35;;;;;;;20.17;70.96;100814.75;5073330;28;20037;-82
2023/08/27 10:50:06;;;;;;;5.10;1.40;;;;;;;20.49;73.53;100823.72;5074161;28;20111;-81
2023/08/27 10:52:49;;;;;;;4.68;1.55;;;;;;;20.76;71.31;100814.75;5073778;28;20395;-79
2023/08/27 10:55:19;;;;;;;4.43;1.10;;;;;;;20.80;69.76;100824.72;5055939;28;20033;-78
2023/08/27 10:57:45;;;;;;;4.25;1.20;;;;;;;20.50;66.22;100799.13;5074017;28;20517;-82
2023/08/27 11:00:12;;;;;;;3.22;1.20;;;;;;;20.66;67.39;100820.13;5074133;28;20028;-82
2023/08/27 11:02:57;;;;;;;2.80;0.85;;;;;;;20.72;66.07;100787.16;5073806;28;20383;-82
2023/08/27 11:05:28;;;;;;;4.82;1.20;;;;;;;21.01;66.58;100803.25;5054912;28;20033;-82
2023/08/27 11:07:58;;;;;;;2.57;1.10;;;;;;;21.33;65.28;100831.31;5073720;28;20036;-80
2023/08/27 11:10:31;;;;;;;2.20;0.95;;;;;;;21.31;63.76;100846.41;5073899;28;20074;-82
2023/08/27 11:12:57;;;;;;;2.85;0.70;;;;;;;20.97;55.98;100856.25;5073588;28;20079;-81
2023/08/27 11:15:28;;;;;;;3.17;0.50;;;;;;;20.39;55.50;100876.28;5073423;28;20476;-81
2023/08/27 11:17:54;;;;;;;1.05;0.40;;;;;;;19.53;55.23;100841.44;5073367;28;20035;-81
2023/08/27 11:20:24;;;;;;;1.08;0.40;;;;;;;19.08;57.63;100864.19;5072882;28;20017;-82
2023/08/27 11:22:55;;;;;;;1.77;0.60;;;;;;;18.50;61.08;100864.56;5073166;28;20032;-81
2023/08/27 11:25:21;;;;;;;2.40;0.60;;;;;;;18.01;64.45;100882.28;5073460;28;20085;-82
2023/08/27 11:27:48;;;;;;;3.17;0.52;;;;;;;17.39;70.79;100878.41;5073564;28;20107;-81
2023/08/27 11:30:15;;;;;;;1.65;0.70;;;;;;;17.07;72.04;100883.09;5073261;28;20028;-81
2023/08/27 11:32:42;;;;;;;1.42;0.60;;;;;;;16.81;74.02;100861.91;5073323;28;20053;-81
2023/08/27 11:35:11;;;;;;;2.72;0.70;;;;;;;16.68;76.70;100884.81;5073172;28;20423;-81
2023/08/27 11:37:38;;;;;;;1.42;0.60;;;;;;;16.52;78.23;100899.19;5073318;28;20029;-81